Millerville, AL (36267)

4:48 AM CST on January 21, 2017 (GMT -0600)
ME9187 | | Change Station
Active Advisory: Tornado Watch

Elev 1141 ft 33.28 °N, 85.92 °W | Updated 34 minutes ago

Overcast
Overcast
61.0 °F
Feels Like 61.0 °F
N
0.0
Wind Variable Wind from WSW
Gusts 0.0 mph

Today
High -- | Low -- °F
--% Chance of Precip.
Yesterday
High -- | Low -- °F
Precip. -- in
Pressure 29.75 in
Visibility 1.0 miles
Clouds Overcast 100 ft
Dew Point 60 °F
Humidity 97%
Rainfall 0.00 in
Snow Depth Not available.
6:45 AM 5:05 PM
Last Quarter, 36% visible
METAR KALX 211035Z AUTO 12003KT 1SM BR OVC001 20/19 A2975 RMK AO2 LTG DSNT SE THRU NW T01960191
Pressure 29.75 in
Visibility 1.0 miles
Clouds Overcast 100 ft
Dew Point 60 °F
Humidity 97%
Rainfall 0.00 in
Snow Depth Not available.
6:45 AM 5:05 PM
Last Quarter, 36% visible
METAR KALX 211035Z AUTO 12003KT 1SM BR OVC001 20/19 A2975 RMK AO2 LTG DSNT SE THRU NW T01960191

Get Your Daily Forecast Email!

Thanks for signing up!

Be on the lookout for a verification email in your inbox.

You'll start receiving the daily forecast at 8 AM.

×

10-Day Weather Forecast

Almanac

Astronomy

Jan. 21, 2017 Rise Set
Actual Time
Civil Twilight
Nautical Twilight
Astronomical Twilight
Moon
Length of Visible Light
Length of Day
Tomorrow will be .
, % of the Moon is Illuminated

Today's Extremes

State Highs State Lows

Community

WunderPhotos

Upload Photos

1,962,540 photos uploaded!

WunderBlog® & News

Nearby

Air Quality

  Air Quality AQ Index Pollutant
Not available.

Snow Depth

Station Depth Elevation

Earthquake Activity

City Distance Mag. Time & Date
Minimum magnitude displayed is 2.5.

Coastal Water Temperatures

Place Temperature

Stations

Nearby Weather Stations

Station Location Temp. Windchill Dew Point Humidity Wind Precip. Elev Updated Type
                   

Watches & Warnings

Tornado Watch
Issued: 4:43 AM CST Jan. 21, 2017 – National Weather Service

Tornado Watch 11 remains in effect until 1100 am CST for the
following locations


Al
. Alabama counties included are

Autauga Baldwin Barbour
Bibb Bullock Butler
Chambers Chilton Choctaw
Clarke Clay Coffee
Conecuh Coosa Covington
Crenshaw Dale Dallas
Elmore Escambia Geneva
Greene Hale Henry
Houston Lee Lowndes
Macon Marengo Mobile
Monroe Montgomery Perry
Pike Randolph Russell
Shelby Sumter Talladega
Tallapoosa Washington Wilcox